Time;durP1;ratioP1;P1;durP2;ratioP2;P2;SDS_P1;SDS_P2;PMS_P1;PMS_P2;Temp;Humidity;BMP_temperature;BMP_pressure;BME280_temperature;BME280_humidity;BME280_pressure;Samples;Min_cycle;Max_cycle;Signal;HPM_P1;HPM_P2
2021/01/11 00:00:22;;;;;;;21.05;13.80;;;;;;;-1.14;71.86;98277.50;13074281;22;20072;-80
2021/01/11 00:05:42;;;;;;;22.30;14.35;;;;;;;-1.19;72.31;98287.22;13052572;22;20034;-80
2021/01/11 00:11:04;;;;;;;22.35;14.02;;;;;;;-1.33;71.80;98283.53;13072434;22;20054;-80
2021/01/11 00:16:24;;;;;;;23.08;14.77;;;;;;;-1.40;72.37;98288.75;13073656;22;20065;-80
2021/01/11 00:21:48;;;;;;;23.75;14.20;;;;;;;-1.56;72.53;98288.28;13090312;22;20027;-80
2021/01/11 00:27:07;;;;;;;21.25;13.98;;;;;;;-1.67;72.42;98288.28;13049351;22;20027;-80
2021/01/11 00:32:27;;;;;;;23.30;13.63;;;;;;;-1.79;72.23;98289.56;13070117;22;20027;-80
2021/01/11 00:37:47;;;;;;;20.52;13.45;;;;;;;-1.83;72.60;98280.84;13069136;22;20090;-80
2021/01/11 00:43:09;;;;;;;22.15;13.65;;;;;;;-1.90;72.75;98282.09;13091768;22;20444;-80
2021/01/11 00:48:29;;;;;;;20.45;13.93;;;;;;;-1.96;72.56;98288.78;13070527;22;20023;-80
2021/01/11 00:53:49;;;;;;;21.45;13.60;;;;;;;-2.10;72.71;98288.53;13070118;22;20088;-80
2021/01/11 00:59:09;;;;;;;23.52;14.15;;;;;;;-2.12;73.46;98293.03;13046407;22;20019;-80
2021/01/11 01:04:29;;;;;;;21.63;13.63;;;;;;;-2.13;72.82;98292.25;13068501;22;20342;-80
2021/01/11 01:09:49;;;;;;;22.58;14.52;;;;;;;-2.18;73.70;98292.25;13046563;22;20102;-80
2021/01/11 01:15:10;;;;;;;21.80;14.10;;;;;;;-2.27;73.24;98281.56;13045811;22;20058;-80
2021/01/11 01:20:29;;;;;;;23.40;14.35;;;;;;;-2.30;73.79;98277.81;13090409;22;20027;-80
2021/01/11 01:25:49;;;;;;;21.88;14.02;;;;;;;-2.31;74.25;98270.88;13045933;22;20024;-80
2021/01/11 01:31:09;;;;;;;22.77;14.50;;;;;;;-2.35;73.68;98271.09;13046120;22;20028;-80
2021/01/11 01:36:29;;;;;;;21.85;13.75;;;;;;;-2.34;73.68;98280.03;13067688;22;20027;-80
2021/01/11 01:41:49;;;;;;;24.15;14.32;;;;;;;-2.37;73.55;98268.13;13045387;22;20085;-80
2021/01/11 01:47:09;;;;;;;21.88;13.63;;;;;;;-2.33;73.75;98273.31;13045946;22;20061;-80
2021/01/11 01:52:28;;;;;;;20.77;13.45;;;;;;;-2.35;74.28;98281.28;13067241;22;20023;-80
2021/01/11 01:57:49;;;;;;;19.70;12.98;;;;;;;-2.38;73.77;98287.75;13067501;22;20027;-80
2021/01/11 02:03:09;;;;;;;21.83;14.23;;;;;;;-2.40;74.23;98280.03;13024143;22;20091;-80
2021/01/11 02:08:52;;;;;;;21.80;13.70;;;;;;;-2.45;73.72;98271.81;13046313;22;20450;-80
2021/01/11 02:14:53;;;;;;;21.20;12.85;;;;;;;-2.46;74.07;98264.88;13045327;22;20027;-80
2021/01/11 02:20:43;;;;;;;21.83;13.55;;;;;;;-2.52;74.35;98258.63;12986823;22;20481;-80
2021/01/11 02:26:12;;;;;;;19.58;12.65;;;;;;;-2.55;74.12;98267.81;13069106;22;20034;-80
2021/01/11 02:31:31;;;;;;;20.45;13.45;;;;;;;-2.54;74.44;98264.59;13046541;22;20027;-80
2021/01/11 02:36:51;;;;;;;20.52;12.95;;;;;;;-2.51;74.06;98260.13;13068854;22;20098;-80
2021/01/11 02:42:11;;;;;;;20.23;12.98;;;;;;;-2.53;74.02;98260.63;13067728;22;20027;-80
2021/01/11 02:47:54;;;;;;;20.10;13.43;;;;;;;-2.58;74.17;98246.94;13093295;22;20054;-80
2021/01/11 02:53:31;;;;;;;21.27;13.95;;;;;;;-2.57;74.37;98251.16;13072044;22;20098;-80
2021/01/11 02:59:27;;;;;;;21.20;13.38;;;;;;;-2.53;74.40;98254.41;13095575;22;20035;-80
2021/01/11 03:04:46;;;;;;;21.52;13.48;;;;;;;-2.39;74.37;98253.44;13032182;22;20443;-80
2021/01/11 03:10:07;;;;;;;23.15;13.80;;;;;;;-2.21;74.23;98246.75;13071105;22;20454;-80
2021/01/11 03:15:27;;;;;;;21.50;14.18;;;;;;;-1.95;74.30;98252.72;13072824;22;20019;-80
2021/01/11 03:20:47;;;;;;;19.67;13.13;;;;;;;-1.73;74.22;98246.50;13070427;22;20027;-80
2021/01/11 03:26:07;;;;;;;20.95;12.55;;;;;;;-1.54;73.90;98252.22;13094420;22;20027;-79
2021/01/11 03:31:27;;;;;;;19.83;12.82;;;;;;;-1.42;73.29;98241.97;13049232;22;20027;-80
2021/01/11 03:36:47;;;;;;;19.00;12.45;;;;;;;-1.37;73.79;98241.19;13049816;22;20034;-80
2021/01/11 03:42:06;;;;;;;20.50;12.45;;;;;;;-1.30;73.46;98243.44;13049067;22;20094;-80
2021/01/11 03:47:26;;;;;;;18.85;11.57;;;;;;;-1.30;74.19;98229.72;13092531;22;20081;-80
2021/01/11 03:52:46;;;;;;;18.33;12.20;;;;;;;-1.24;73.39;98233.22;13067985;22;20023;-80
2021/01/11 03:58:09;;;;;;;17.48;11.73;;;;;;;-1.17;73.84;98240.88;13020502;22;20027;-79
2021/01/11 04:03:29;;;;;;;17.35;11.00;;;;;;;-1.05;73.86;98239.63;13044771;22;20357;-80
2021/01/11 04:08:49;;;;;;;16.58;10.32;;;;;;;-0.99;73.42;98228.63;13041116;22;20019;-79
2021/01/11 04:14:09;;;;;;;15.73;10.35;;;;;;;-0.97;73.21;98237.81;13045722;22;20031;-79
2021/01/11 04:19:28;;;;;;;15.75;10.45;;;;;;;-1.01;73.36;98237.34;13090623;22;20034;-80
2021/01/11 04:24:48;;;;;;;18.15;11.57;;;;;;;-1.13;72.95;98235.16;13076516;22;20027;-80
2021/01/11 04:30:09;;;;;;;19.38;11.15;;;;;;;-1.07;73.59;98233.13;13071405;22;20027;-80
2021/01/11 04:35:29;;;;;;;16.88;10.93;;;;;;;-0.98;73.34;98239.06;13071419;22;20027;-80
2021/01/11 04:40:49;;;;;;;16.23;10.13;;;;;;;-0.95;73.18;98229.13;13027129;22;20027;-80
2021/01/11 04:46:12;;;;;;;13.90;9.75;;;;;;;-0.96;73.25;98222.16;13072097;22;20047;-80
2021/01/11 04:51:32;;;;;;;14.05;9.20;;;;;;;-1.12;73.16;98225.69;13023281;22;20446;-79
2021/01/11 04:56:55;;;;;;;14.30;9.13;;;;;;;-1.35;73.36;98211.31;13027701;22;20023;-80
2021/01/11 05:02:28;;;;;;;14.57;9.02;;;;;;;-1.69;73.29;98203.19;12999360;22;20019;-81
2021/01/11 05:07:48;;;;;;;15.05;9.80;;;;;;;-1.93;73.30;98205.69;13094482;22;20027;-80
2021/01/11 05:13:09;;;;;;;15.15;9.80;;;;;;;-2.06;73.36;98209.69;13071466;22;20027;-80
2021/01/11 05:18:51;;;;;;;23.25;12.27;;;;;;;-2.28;73.03;98195.28;13025369;22;20442;-80
2021/01/11 05:24:48;;;;;;;19.70;11.93;;;;;;;-2.57;73.35;98202.72;13072219;22;20091;-79
2021/01/11 05:30:12;;;;;;;15.20;10.05;;;;;;;-2.76;74.07;98199.69;12920036;22;20027;-80
2021/01/11 05:35:32;;;;;;;;;;;;;;;-3.04;74.00;98199.63;13028620;22;20027;-80
2021/01/11 05:40:55;;;;;;;13.85;9.32;;;;;;;-3.39;73.54;98199.22;13075475;22;19924;-80
2021/01/11 05:46:22;;;;;;;14.18;8.43;;;;;;;-3.66;74.02;98192.41;13096725;22;20026;-81
2021/01/11 05:51:45;;;;;;;12.80;8.48;;;;;;;-3.73;74.07;98198.31;13077570;22;20519;-81
2021/01/11 06:19:55;;;;;;;14.80;9.00;;;;;;;-3.75;75.08;98194.09;12640897;23;20010;-82
2021/01/11 06:34:26;;;;;;;;;;;;;;;-3.85;75.42;98209.16;13151482;22;20027;-82
2021/01/11 06:47:09;;;;;;;21.88;12.85;;;;;;;-3.88;75.60;98204.66;12913389;22;20024;-81
2021/01/11 06:52:38;;;;;;;17.83;11.43;;;;;;;-3.85;75.43;98209.16;12990483;22;20065;-82
2021/01/11 06:58:04;;;;;;;19.52;12.90;;;;;;;-3.85;76.73;98209.16;12986494;22;20028;-82
2021/01/11 07:03:55;;;;;;;19.00;12.85;;;;;;;-3.77;76.16;98221.09;13026477;22;20031;-82
2021/01/11 07:09:22;;;;;;;23.33;14.70;;;;;;;-3.67;76.06;98218.19;13002293;22;20043;-82
2021/01/11 07:15:16;;;;;;;25.27;14.70;;;;;;;-3.57;75.38;98222.19;13001474;22;20023;-82
2021/01/11 07:20:50;;;;;;;23.92;15.32;;;;;;;-2.39;76.12;98231.56;13080044;22;20027;-82
2021/01/11 07:26:32;;;;;;;;;;;;;;;0.67;75.79;98235.38;13105739;22;20023;-81
2021/01/11 07:31:58;;;;;;;24.20;16.23;;;;;;;3.16;74.28;98242.28;13120127;22;19914;-80
2021/01/11 07:37:19;;;;;;;22.60;16.77;;;;;;;4.53;71.29;98239.41;13117767;22;20027;-80
2021/01/11 07:42:40;;;;;;;24.10;15.95;;;;;;;5.28;70.06;98241.13;13119322;22;20484;-80
2021/01/11 07:48:00;;;;;;;22.58;16.45;;;;;;;9.96;69.80;98247.47;13163684;22;20026;-80
2021/01/11 07:53:20;;;;;;;23.88;17.58;;;;;;;13.02;65.03;98251.25;13136189;22;20022;-80
2021/01/11 07:58:46;;;;;;;23.20;17.48;;;;;;;15.46;57.94;98254.22;13149609;22;20023;-80
2021/01/11 08:04:13;;;;;;;22.38;16.67;;;;;;;17.26;52.59;98256.00;13133084;22;20027;-79
2021/01/11 08:09:36;;;;;;;19.27;15.90;;;;;;;19.67;47.93;98260.47;13149600;22;20033;-82
2021/01/11 08:15:01;;;;;;;17.50;15.23;;;;;;;22.90;39.21;98249.31;13099896;22;20080;-82
2021/01/11 08:20:24;;;;;;;20.73;15.82;;;;;;;24.38;33.44;98252.91;13098707;22;20026;-82
2021/01/11 08:25:45;;;;;;;;;;;;;;;27.00;27.74;98256.38;13098364;22;20027;-81
2021/01/11 08:31:05;;;;;;;18.60;15.93;;;;;;;26.55;22.42;98251.59;13033713;22;19915;-80
2021/01/11 08:36:25;;;;;;;19.90;15.98;;;;;;;26.64;22.08;98267.44;13111266;22;20519;-81
2021/01/11 08:41:50;;;;;;;17.85;15.75;;;;;;;28.87;18.37;98262.75;13053727;22;20091;-80
2021/01/11 08:47:10;;;;;;;16.92;15.10;;;;;;;29.11;17.04;98264.28;13098686;22;20101;-80
2021/01/11 08:52:33;;;;;;;16.25;14.55;;;;;;;31.88;15.34;98272.78;13097281;22;20345;-80
2021/01/11 08:57:59;;;;;;;15.80;13.57;;;;;;;31.20;12.95;98277.59;13055439;22;20042;-80
2021/01/11 09:03:53;;;;;;;17.40;14.68;;;;;;;30.42;13.00;98265.69;13053446;22;20050;-80
2021/01/11 09:09:15;;;;;;;18.58;15.15;;;;;;;31.06;12.55;98278.38;13100679;22;20070;-80
2021/01/11 09:14:52;;;;;;;16.98;14.68;;;;;;;31.18;12.18;98268.97;13141078;22;20046;-80
2021/01/11 09:20:13;;;;;;;18.27;15.52;;;;;;;32.76;11.45;98269.66;13119170;22;20027;-80
2021/01/11 09:25:36;;;;;;;17.50;15.10;;;;;;;32.02;11.45;98278.41;13118146;22;20026;-80
2021/01/11 09:30:56;;;;;;;16.80;14.55;;;;;;;33.22;11.08;98264.75;13095028;22;20072;-80
2021/01/11 09:36:15;;;;;;;17.17;14.85;;;;;;;32.87;10.20;98259.44;13089383;22;20397;-80
2021/01/11 09:41:54;;;;;;;17.67;14.80;;;;;;;30.86;10.84;98269.84;13095478;22;20027;-81
2021/01/11 09:47:14;;;;;;;18.85;14.63;;;;;;;31.95;10.74;98261.91;13095053;22;20034;-75
2021/01/11 09:52:34;;;;;;;17.70;14.60;;;;;;;30.79;10.26;98246.13;13095550;22;20384;-80
2021/01/11 09:57:54;;;;;;;16.60;14.68;;;;;;;30.11;10.83;98239.88;13096196;22;20030;-81
2021/01/11 10:03:14;;;;;;;14.90;13.40;;;;;;;28.12;12.07;98245.16;13073586;22;20061;-82
2021/01/11 10:08:35;;;;;;;16.77;13.65;;;;;;;27.39;11.90;98234.56;13074770;22;20022;-81
2021/01/11 10:13:55;;;;;;;15.95;13.48;;;;;;;27.32;11.92;98235.97;13138873;22;20080;-81
2021/01/11 10:19:19;;;;;;;15.52;13.55;;;;;;;27.12;12.48;98235.03;13095775;22;20054;-81
2021/01/11 10:24:39;;;;;;;16.92;14.75;;;;;;;21.56;15.06;98243.19;13117909;22;20453;-84
2021/01/11 10:29:59;;;;;;;15.88;13.73;;;;;;;21.83;16.66;98219.91;13094140;22;20409;-75
2021/01/11 10:35:19;;;;;;;18.23;14.35;;;;;;;20.45;17.47;98209.59;13113173;22;20026;-74
2021/01/11 10:40:38;;;;;;;16.83;13.70;;;;;;;17.37;18.88;98207.16;13114984;22;20033;-75
2021/01/11 10:45:59;;;;;;;17.95;15.65;;;;;;;15.68;20.61;98198.50;13115008;22;20027;-76
2021/01/11 10:51:22;;;;;;;17.92;15.45;;;;;;;13.68;22.67;98186.06;13094677;22;20097;-75
2021/01/11 10:56:42;;;;;;;20.38;17.42;;;;;;;12.64;24.02;98187.78;13141982;22;20033;-74
2021/01/11 11:02:03;;;;;;;19.60;15.18;;;;;;;11.73;25.49;98190.69;13145406;22;20033;-78
2021/01/11 11:07:52;;;;;;;17.65;14.02;;;;;;;10.57;26.93;98177.50;13088653;22;20034;-83
2021/01/11 11:13:50;;;;;;;16.05;12.60;;;;;;;9.79;28.08;98166.66;13133056;22;20023;-84
2021/01/11 11:31:46;;;;;;;18.88;14.23;;;;;;;7.95;32.99;98170.69;13092585;22;20022;-75
2021/01/11 11:37:06;;;;;;;16.77;12.68;;;;;;;6.95;32.23;98151.06;13077685;22;20469;-75
2021/01/11 11:42:35;;;;;;;18.75;14.25;;;;;;;6.22;34.99;98161.19;13098268;22;20072;-76
2021/01/11 11:48:35;;;;;;;21.08;15.48;;;;;;;6.25;35.81;98160.06;13104406;22;20054;-79
2021/01/11 11:53:56;;;;;;;23.08;13.93;;;;;;;6.20;37.11;98155.47;13145955;22;20103;-80
2021/01/11 11:59:18;;;;;;;18.20;13.27;;;;;;;6.26;37.87;98139.38;13125691;22;20084;-80
2021/01/11 12:04:39;;;;;;;16.40;12.68;;;;;;;6.06;37.12;98138.28;13146158;22;20052;-79
2021/01/11 12:10:01;;;;;;;18.83;13.68;;;;;;;6.14;36.44;98136.25;13106567;22;20349;-79
2021/01/11 12:15:21;;;;;;;18.60;12.50;;;;;;;6.31;36.68;98121.81;13103735;22;20095;-80
2021/01/11 12:27:08;;;;;;;15.80;11.77;;;;;;;5.44;39.98;98117.34;13022044;22;20445;-75
2021/01/11 12:32:27;;;;;;;17.58;12.60;;;;;;;5.19;41.85;98106.03;13032930;22;20055;-75
2021/01/11 12:37:47;;;;;;;19.17;13.25;;;;;;;4.95;39.76;98114.81;13011786;22;20028;-75
2021/01/11 12:43:08;;;;;;;16.55;12.20;;;;;;;4.95;40.37;98098.97;13034369;22;20110;-75
2021/01/11 12:48:27;;;;;;;18.13;11.75;;;;;;;4.53;40.49;98093.63;13054336;22;20094;-75
2021/01/11 12:53:49;;;;;;;18.70;12.30;;;;;;;4.60;41.71;98081.13;13077200;22;20027;-76
2021/01/11 12:59:09;;;;;;;21.25;13.05;;;;;;;4.80;42.36;98071.97;13076041;22;20031;-75
2021/01/11 13:04:30;;;;;;;17.73;12.38;;;;;;;4.54;42.04;98078.53;13077021;22;20031;-75
2021/01/11 13:09:50;;;;;;;17.85;11.70;;;;;;;4.39;43.08;98072.19;13053847;22;20027;-75
2021/01/11 13:15:10;;;;;;;19.83;12.00;;;;;;;3.97;44.52;98069.53;13055242;22;20072;-75
2021/01/11 13:20:30;;;;;;;16.65;11.05;;;;;;;3.69;43.28;98059.22;13031449;22;20027;-75
2021/01/11 13:25:50;;;;;;;17.70;10.73;;;;;;;3.67;44.07;98051.47;13021533;22;20462;-75
2021/01/11 13:31:11;;;;;;;16.55;10.73;;;;;;;3.38;46.54;98049.94;13053020;22;20031;-75
2021/01/11 13:36:33;;;;;;;17.10;10.40;;;;;;;2.84;46.05;98049.41;13053370;22;20043;-76
2021/01/11 13:41:54;;;;;;;17.13;10.23;;;;;;;2.61;45.19;98039.44;13054270;22;20073;-75
2021/01/11 13:47:15;;;;;;;16.17;10.68;;;;;;;2.45;46.40;98042.00;13096688;22;20517;-75
2021/01/11 13:52:34;;;;;;;13.63;9.32;;;;;;;2.23;47.71;98045.94;13073630;22;20038;-75
2021/01/11 13:57:54;;;;;;;14.70;8.93;;;;;;;2.33;45.94;98038.00;13075907;22;20082;-75
2021/01/11 14:03:14;;;;;;;13.20;8.38;;;;;;;2.33;48.14;98049.00;13032396;22;20081;-75
2021/01/11 14:08:34;;;;;;;11.65;7.15;;;;;;;2.18;46.58;98048.78;13075797;22;20106;-74
2021/01/11 14:13:54;;;;;;;8.95;6.40;;;;;;;1.91;48.38;98032.28;13052867;22;20053;-74
2021/01/11 14:19:16;;;;;;;9.68;6.07;;;;;;;1.59;49.12;98035.09;13031250;22;20029;-75
2021/01/11 14:24:36;;;;;;;10.23;6.35;;;;;;;1.41;48.06;98025.66;13032636;22;20034;-74
2021/01/11 14:29:56;;;;;;;9.75;5.90;;;;;;;1.29;49.45;98016.13;13052487;22;20027;-74
2021/01/11 14:35:23;;;;;;;8.77;5.90;;;;;;;1.21;50.75;98007.00;13050183;22;20027;-78
2021/01/11 14:40:42;;;;;;;8.00;5.28;;;;;;;1.05;49.56;98021.75;13092921;22;20034;-76
2021/01/11 14:46:02;;;;;;;8.68;5.72;;;;;;;0.90;50.82;98027.00;13037723;22;20031;-76
2021/01/11 14:51:22;;;;;;;7.88;5.57;;;;;;;0.79;51.50;98014.16;13060816;22;20072;-76
2021/01/11 14:56:42;;;;;;;9.73;6.60;;;;;;;0.68;53.33;98015.06;13083574;22;20019;-76
2021/01/11 15:02:02;;;;;;;12.82;7.38;;;;;;;0.56;52.61;98002.72;13081880;22;20035;-77
2021/01/11 15:07:24;;;;;;;9.98;6.57;;;;;;;0.43;52.85;98006.16;13079907;22;20034;-76
2021/01/11 15:12:45;;;;;;;12.77;8.05;;;;;;;0.23;53.26;98012.91;13059741;22;20069;-77
2021/01/11 15:18:06;;;;;;;10.57;7.18;;;;;;;0.10;52.65;97999.09;13083332;22;20081;-76
2021/01/11 15:23:27;;;;;;;12.90;8.07;;;;;;;0.08;52.60;97993.34;13059470;22;20430;-75
2021/01/11 15:28:47;;;;;;;13.30;7.85;;;;;;;0.12;54.16;97999.31;13092477;22;20027;-79
2021/01/11 15:34:08;;;;;;;12.65;8.70;;;;;;;0.09;55.62;97983.88;13089203;22;20027;-80
2021/01/11 15:39:38;;;;;;;12.90;9.07;;;;;;;0.07;54.77;97969.91;13114296;22;20023;-80
2021/01/11 15:44:59;;;;;;;12.27;9.02;;;;;;;0.02;57.16;97976.25;13105961;22;20038;-80
2021/01/11 15:50:30;;;;;;;14.10;9.13;;;;;;;-0.01;55.33;97961.53;13093146;22;20350;-80
2021/01/11 15:55:51;;;;;;;14.55;9.07;;;;;;;0.05;54.08;97968.97;13057539;22;20023;-73
2021/01/11 16:01:11;;;;;;;17.58;10.93;;;;;;;0.10;54.76;97965.41;13075140;22;20027;-75
2021/01/11 16:06:45;;;;;;;16.60;10.02;;;;;;;-0.05;57.49;97954.84;13076568;22;20054;-74
2021/01/11 16:12:05;;;;;;;18.02;11.15;;;;;;;-0.06;55.98;97947.88;13054407;22;20487;-75
2021/01/11 16:17:37;;;;;;;15.43;10.65;;;;;;;-0.08;55.39;97937.44;13082111;22;20065;-77
2021/01/11 16:22:57;;;;;;;19.10;11.02;;;;;;;-0.09;56.47;97932.47;13090275;22;20027;-79
2021/01/11 16:28:44;;;;;;;16.95;11.00;;;;;;;-0.13;57.29;97915.53;13096985;22;20034;-81
2021/01/11 17:34:29;;;;;;;25.17;12.55;;;;;;;-0.67;57.62;97880.78;13030501;22;20022;-82
2021/01/11 17:58:37;;;;;;;14.25;9.73;;;;;;;-0.65;57.32;97900.19;12989206;22;20039;-80
2021/01/11 18:04:00;;;;;;;14.70;9.40;;;;;;;-0.65;58.00;97889.22;12968575;22;20027;-76
2021/01/11 18:15:12;;;;;;;16.63;11.38;;;;;;;-0.91;58.07;97895.22;13006481;22;20026;-79
2021/01/11 18:20:34;;;;;;;16.70;11.93;;;;;;;-0.97;59.00;97887.03;12941416;22;20031;-82
2021/01/11 18:26:50;;;;;;;15.95;11.18;;;;;;;-1.01;58.08;97892.09;13012895;22;20027;-81
2021/01/11 18:32:34;;;;;;;17.05;12.32;;;;;;;-0.98;58.64;97906.75;12931159;22;20027;-80
2021/01/11 18:38:08;;;;;;;17.65;11.63;;;;;;;-1.24;59.93;97880.59;13003695;22;20081;-80
2021/01/11 18:43:28;;;;;;;16.55;10.93;;;;;;;-1.40;59.38;97886.94;13034374;22;20042;-80
2021/01/11 18:49:28;;;;;;;17.30;11.45;;;;;;;-1.44;59.26;97867.34;13017676;22;20027;-82
2021/01/11 19:09:34;;;;;;;14.73;9.32;;;;;;;-1.43;59.25;97857.13;13019331;22;20072;-89
2021/01/11 19:22:09;;;;;;;14.30;9.73;;;;;;;-1.28;59.62;97851.97;12956446;22;20027;-75
2021/01/11 19:27:29;;;;;;;15.52;10.70;;;;;;;-1.33;59.03;97833.63;12966084;22;20066;-77
2021/01/11 19:32:49;;;;;;;19.25;11.25;;;;;;;-1.33;59.69;97834.38;13012897;22;20028;-75
2021/01/11 19:38:10;;;;;;;16.05;10.13;;;;;;;-1.31;60.25;97848.28;13013629;22;20047;-78
2021/01/11 19:43:30;;;;;;;14.75;10.23;;;;;;;-1.35;59.55;97845.09;13020722;22;20098;-79
2021/01/11 19:48:51;;;;;;;14.68;9.57;;;;;;;-1.41;58.84;97832.69;12996628;22;20079;-79
2021/01/11 19:54:10;;;;;;;14.27;9.32;;;;;;;-1.35;59.83;97823.19;12996598;22;20024;-79
2021/01/11 19:59:32;;;;;;;15.63;10.63;;;;;;;-1.37;60.09;97808.50;12989933;22;20027;-78
2021/01/11 20:04:53;;;;;;;14.88;10.23;;;;;;;-1.49;59.70;97816.81;13015301;22;20102;-79
2021/01/11 20:10:13;;;;;;;21.92;12.55;;;;;;;-1.61;61.24;97799.03;13014042;22;20051;-78
2021/01/11 20:15:33;;;;;;;18.90;11.20;;;;;;;-1.64;60.06;97804.75;12989113;22;20058;-78
2021/01/11 20:20:53;;;;;;;17.67;11.13;;;;;;;-1.63;60.93;97809.75;13010059;22;20492;-78
2021/01/11 20:26:12;;;;;;;17.15;11.20;;;;;;;-1.54;60.23;97795.72;12989597;22;20450;-74
2021/01/11 20:31:39;;;;;;;15.52;10.73;;;;;;;-1.62;59.80;97788.59;13011511;22;20032;-76
2021/01/11 20:36:59;;;;;;;15.85;11.05;;;;;;;-1.77;61.18;97778.00;13011791;22;20028;-76
2021/01/11 20:42:20;;;;;;;17.45;11.50;;;;;;;-1.90;60.76;97780.59;13012260;22;20027;-75
2021/01/11 20:47:46;;;;;;;15.07;10.48;;;;;;;-1.88;61.03;97776.09;12991355;22;20126;-75
2021/01/11 20:53:06;;;;;;;16.08;10.85;;;;;;;-1.87;60.49;97768.63;12991910;22;20106;-75
2021/01/11 20:58:26;;;;;;;18.13;10.38;;;;;;;-1.95;61.46;97773.16;12947342;22;20032;-75
2021/01/11 21:03:46;;;;;;;16.02;11.27;;;;;;;-1.96;61.00;97766.22;12947306;22;20031;-75
2021/01/11 21:09:10;;;;;;;15.77;10.30;;;;;;;-2.04;61.68;97760.56;13011894;22;20027;-75
2021/01/11 21:14:30;;;;;;;15.50;10.40;;;;;;;-2.06;62.00;97755.59;12989969;22;20051;-75
2021/01/11 21:19:50;;;;;;;13.88;10.02;;;;;;;-1.97;60.71;97767.47;13011132;22;20285;-75
2021/01/11 21:25:11;;;;;;;15.23;10.38;;;;;;;-1.94;60.78;97767.19;12990872;22;20051;-75
2021/01/11 21:30:30;;;;;;;15.93;10.77;;;;;;;-1.97;60.54;97768.22;13012056;22;20035;-75
2021/01/11 21:35:50;;;;;;;17.20;11.35;;;;;;;-1.94;60.43;97755.50;12990704;22;20027;-75
2021/01/11 21:41:10;;;;;;;15.05;9.77;;;;;;;-2.04;60.75;97752.34;12967873;22;20027;-75
2021/01/11 21:46:30;;;;;;;16.98;11.50;;;;;;;-2.22;60.78;97756.47;12967531;22;20051;-75
2021/01/11 21:51:50;;;;;;;16.10;10.93;;;;;;;-2.41;60.62;97752.88;12988768;22;20402;-75
2021/01/11 21:57:10;;;;;;;15.93;10.63;;;;;;;-2.57;61.40;97738.06;12988967;22;20027;-75
2021/01/11 22:02:30;;;;;;;16.50;10.60;;;;;;;-2.52;61.81;97731.06;13012688;22;20034;-75
2021/01/11 22:07:50;;;;;;;16.52;11.20;;;;;;;-2.52;61.37;97728.31;12967188;22;20031;-75
2021/01/11 22:13:10;;;;;;;15.93;10.32;;;;;;;-2.64;62.17;97720.19;12946136;22;20034;-75
2021/01/11 22:18:30;;;;;;;14.10;9.77;;;;;;;-2.62;61.98;97716.94;12989549;22;20028;-75
2021/01/11 22:23:49;;;;;;;15.85;10.38;;;;;;;-2.53;61.50;97724.84;12974223;22;20027;-75
2021/01/11 22:29:09;;;;;;;15.27;10.15;;;;;;;-2.40;61.26;97719.56;12946526;22;20042;-75
2021/01/11 22:34:29;;;;;;;15.02;10.52;;;;;;;-2.36;61.31;97705.59;12988452;22;20388;-75
2021/01/11 22:39:49;;;;;;;16.20;10.40;;;;;;;-2.30;61.37;97695.38;12989469;22;20058;-75
2021/01/11 22:45:09;;;;;;;14.45;9.50;;;;;;;-2.25;61.13;97700.06;12988620;22;20031;-75
2021/01/11 22:50:29;;;;;;;15.65;9.70;;;;;;;-2.29;61.17;97680.47;12988096;22;20034;-75
2021/01/11 22:55:55;;;;;;;16.75;10.10;;;;;;;-2.35;60.81;97682.47;12967578;22;20023;-75
2021/01/11 23:01:18;;;;;;;12.95;8.75;;;;;;;-2.36;60.68;97672.81;12924574;22;20130;-75
2021/01/11 23:06:38;;;;;;;16.00;9.90;;;;;;;-2.38;60.72;97656.16;12928563;22;20035;-75
2021/01/11 23:11:57;;;;;;;15.13;8.77;;;;;;;-2.26;61.15;97659.53;12992084;22;20058;-75
2021/01/11 23:17:17;;;;;;;12.45;8.40;;;;;;;-2.21;60.28;97656.78;12993520;22;20036;-75
2021/01/11 23:22:37;;;;;;;14.60;9.15;;;;;;;-2.22;60.69;97671.69;12961630;22;20031;-75
2021/01/11 23:28:10;;;;;;;14.45;9.32;;;;;;;-2.40;60.01;97658.69;12950633;22;20352;-75
2021/01/11 23:33:30;;;;;;;16.55;9.60;;;;;;;-2.53;60.62;97663.97;12950328;22;20027;-75
2021/01/11 23:38:50;;;;;;;15.32;9.93;;;;;;;-2.57;60.65;97660.78;12971773;22;20051;-75
2021/01/11 23:44:10;;;;;;;15.15;9.82;;;;;;;-2.60;60.36;97649.63;12970876;22;20500;-75
2021/01/11 23:49:49;;;;;;;15.13;9.70;;;;;;;-2.63;60.10;97645.16;12970018;22;20027;-75
2021/01/11 23:55:10;;;;;;;13.13;9.60;;;;;;;-2.53;60.27;97636.66;12991350;22;20099;-75
